sensor_id;sensor_type;location;lat;lon;timestamp;P1;durP1;ratioP1;P2;durP2;ratioP2
13959;SDS011;7052;51.050;3.716;2024-01-10T00:00:15;6.80;;;4.47;;
13959;SDS011;7052;51.050;3.716;2024-01-10T00:02:42;6.43;;;4.87;;
13959;SDS011;7052;51.050;3.716;2024-01-10T00:05:10;7.93;;;5.20;;
13959;SDS011;7052;51.050;3.716;2024-01-10T00:07:38;8.13;;;4.90;;
13959;SDS011;7052;51.050;3.716;2024-01-10T00:10:05;7.50;;;5.53;;
13959;SDS011;7052;51.050;3.716;2024-01-10T00:12:33;9.57;;;6.03;;
13959;SDS011;7052;51.050;3.716;2024-01-10T00:15:05;6.20;;;4.63;;
13959;SDS011;7052;51.050;3.716;2024-01-10T00:17:32;8.57;;;5.40;;
13959;SDS011;7052;51.050;3.716;2024-01-10T00:19:59;8.07;;;5.57;;
13959;SDS011;7052;51.050;3.716;2024-01-10T00:22:26;7.87;;;4.57;;
13959;SDS011;7052;51.050;3.716;2024-01-10T00:24:53;9.30;;;5.43;;
13959;SDS011;7052;51.050;3.716;2024-01-10T00:27:20;16.60;;;6.77;;
13959;SDS011;7052;51.050;3.716;2024-01-10T00:29:47;6.20;;;3.97;;
13959;SDS011;7052;51.050;3.716;2024-01-10T00:32:17;7.87;;;5.73;;
13959;SDS011;7052;51.050;3.716;2024-01-10T00:34:44;7.33;;;5.40;;
13959;SDS011;7052;51.050;3.716;2024-01-10T00:37:13;7.67;;;5.03;;
13959;SDS011;7052;51.050;3.716;2024-01-10T00:39:41;7.57;;;5.57;;
13959;SDS011;7052;51.050;3.716;2024-01-10T00:42:08;7.87;;;5.20;;
13959;SDS011;7052;51.050;3.716;2024-01-10T00:44:35;6.97;;;4.70;;
13959;SDS011;7052;51.050;3.716;2024-01-10T00:47:02;5.27;;;3.87;;
13959;SDS011;7052;51.050;3.716;2024-01-10T00:49:30;7.80;;;4.90;;
13959;SDS011;7052;51.050;3.716;2024-01-10T00:51:57;6.77;;;4.50;;
13959;SDS011;7052;51.050;3.716;2024-01-10T00:54:25;5.60;;;3.93;;
13959;SDS011;7052;51.050;3.716;2024-01-10T00:56:53;5.97;;;4.20;;
13959;SDS011;7052;51.050;3.716;2024-01-10T00:59:20;7.73;;;4.73;;
13959;SDS011;7052;51.050;3.716;2024-01-10T01:01:47;6.20;;;4.80;;
13959;SDS011;7052;51.050;3.716;2024-01-10T01:04:14;10.57;;;5.47;;
13959;SDS011;7052;51.050;3.716;2024-01-10T01:06:44;7.37;;;5.07;;
13959;SDS011;7052;51.050;3.716;2024-01-10T01:09:13;7.53;;;5.03;;
13959;SDS011;7052;51.050;3.716;2024-01-10T01:11:41;5.80;;;3.83;;
13959;SDS011;7052;51.050;3.716;2024-01-10T01:14:08;8.13;;;5.40;;
13959;SDS011;7052;51.050;3.716;2024-01-10T01:16:35;8.17;;;5.40;;
13959;SDS011;7052;51.050;3.716;2024-01-10T01:19:02;7.23;;;5.13;;
13959;SDS011;7052;51.050;3.716;2024-01-10T01:21:30;7.63;;;5.10;;
13959;SDS011;7052;51.050;3.716;2024-01-10T01:23:59;7.57;;;5.20;;
13959;SDS011;7052;51.050;3.716;2024-01-10T01:26:26;7.10;;;5.10;;
13959;SDS011;7052;51.050;3.716;2024-01-10T01:28:53;7.23;;;4.83;;
13959;SDS011;7052;51.050;3.716;2024-01-10T01:31:20;7.67;;;4.90;;
13959;SDS011;7052;51.050;3.716;2024-01-10T01:33:48;6.67;;;4.87;;
13959;SDS011;7052;51.050;3.716;2024-01-10T01:36:20;7.93;;;4.77;;
13959;SDS011;7052;51.050;3.716;2024-01-10T01:38:47;6.73;;;5.00;;
13959;SDS011;7052;51.050;3.716;2024-01-10T01:41:15;6.37;;;5.07;;
13959;SDS011;7052;51.050;3.716;2024-01-10T01:43:43;7.73;;;5.37;;
13959;SDS011;7052;51.050;3.716;2024-01-10T01:46:11;6.00;;;4.77;;
13959;SDS011;7052;51.050;3.716;2024-01-10T01:48:41;6.47;;;5.10;;
13959;SDS011;7052;51.050;3.716;2024-01-10T01:51:09;8.57;;;5.20;;
13959;SDS011;7052;51.050;3.716;2024-01-10T01:53:39;8.17;;;5.03;;
13959;SDS011;7052;51.050;3.716;2024-01-10T01:56:08;7.23;;;5.00;;
13959;SDS011;7052;51.050;3.716;2024-01-10T01:58:37;7.33;;;4.77;;
13959;SDS011;7052;51.050;3.716;2024-01-10T02:01:06;6.00;;;4.27;;
13959;SDS011;7052;51.050;3.716;2024-01-10T02:03:33;7.57;;;4.40;;
13959;SDS011;7052;51.050;3.716;2024-01-10T02:06:00;6.23;;;4.50;;
13959;SDS011;7052;51.050;3.716;2024-01-10T02:08:28;7.40;;;4.40;;
13959;SDS011;7052;51.050;3.716;2024-01-10T02:10:56;5.17;;;4.00;;
13959;SDS011;7052;51.050;3.716;2024-01-10T02:13:23;5.43;;;4.37;;
13959;SDS011;7052;51.050;3.716;2024-01-10T02:15:52;5.90;;;4.23;;
13959;SDS011;7052;51.050;3.716;2024-01-10T02:18:19;6.10;;;4.17;;
13959;SDS011;7052;51.050;3.716;2024-01-10T02:20:46;6.73;;;4.97;;
13959;SDS011;7052;51.050;3.716;2024-01-10T02:23:13;6.60;;;3.63;;
13959;SDS011;7052;51.050;3.716;2024-01-10T02:25:41;6.33;;;4.37;;
13959;SDS011;7052;51.050;3.716;2024-01-10T02:28:09;8.07;;;4.27;;
13959;SDS011;7052;51.050;3.716;2024-01-10T02:30:37;6.43;;;4.13;;
13959;SDS011;7052;51.050;3.716;2024-01-10T02:33:04;5.57;;;4.30;;
13959;SDS011;7052;51.050;3.716;2024-01-10T02:35:31;6.27;;;4.50;;
13959;SDS011;7052;51.050;3.716;2024-01-10T02:37:58;5.37;;;4.20;;
13959;SDS011;7052;51.050;3.716;2024-01-10T02:40:27;7.00;;;4.43;;
13959;SDS011;7052;51.050;3.716;2024-01-10T02:42:55;8.17;;;4.93;;
13959;SDS011;7052;51.050;3.716;2024-01-10T02:45:23;6.33;;;4.30;;
13959;SDS011;7052;51.050;3.716;2024-01-10T02:47:50;5.77;;;4.30;;
13959;SDS011;7052;51.050;3.716;2024-01-10T02:50:17;6.57;;;4.47;;
13959;SDS011;7052;51.050;3.716;2024-01-10T02:52:46;5.97;;;4.23;;
13959;SDS011;7052;51.050;3.716;2024-01-10T02:55:13;6.07;;;4.23;;
13959;SDS011;7052;51.050;3.716;2024-01-10T02:57:41;6.60;;;4.33;;
13959;SDS011;7052;51.050;3.716;2024-01-10T03:00:10;6.97;;;4.50;;
13959;SDS011;7052;51.050;3.716;2024-01-10T03:02:38;5.03;;;4.03;;
13959;SDS011;7052;51.050;3.716;2024-01-10T03:05:05;4.83;;;3.60;;
13959;SDS011;7052;51.050;3.716;2024-01-10T03:07:33;7.83;;;4.90;;
13959;SDS011;7052;51.050;3.716;2024-01-10T03:10:00;7.07;;;4.73;;
13959;SDS011;7052;51.050;3.716;2024-01-10T03:12:29;6.13;;;4.60;;
13959;SDS011;7052;51.050;3.716;2024-01-10T03:14:57;5.53;;;4.37;;
13959;SDS011;7052;51.050;3.716;2024-01-10T03:17:26;6.93;;;4.40;;
13959;SDS011;7052;51.050;3.716;2024-01-10T03:19:53;5.33;;;4.27;;
13959;SDS011;7052;51.050;3.716;2024-01-10T03:22:20;5.43;;;3.90;;
13959;SDS011;7052;51.050;3.716;2024-01-10T03:24:47;6.50;;;4.27;;
13959;SDS011;7052;51.050;3.716;2024-01-10T03:27:14;6.70;;;4.10;;
13959;SDS011;7052;51.050;3.716;2024-01-10T03:29:41;5.77;;;4.07;;
13959;SDS011;7052;51.050;3.716;2024-01-10T03:32:08;8.90;;;3.97;;
13959;SDS011;7052;51.050;3.716;2024-01-10T03:34:37;6.77;;;4.30;;
13959;SDS011;7052;51.050;3.716;2024-01-10T03:37:04;6.77;;;4.73;;
13959;SDS011;7052;51.050;3.716;2024-01-10T03:39:32;6.90;;;4.33;;
13959;SDS011;7052;51.050;3.716;2024-01-10T03:41:58;4.87;;;4.00;;
13959;SDS011;7052;51.050;3.716;2024-01-10T03:44:26;5.90;;;4.03;;
13959;SDS011;7052;51.050;3.716;2024-01-10T03:46:53;7.10;;;4.50;;
13959;SDS011;7052;51.050;3.716;2024-01-10T03:49:23;6.30;;;4.50;;
13959;SDS011;7052;51.050;3.716;2024-01-10T03:51:51;5.60;;;4.23;;
13959;SDS011;7052;51.050;3.716;2024-01-10T03:54:18;6.13;;;4.30;;
13959;SDS011;7052;51.050;3.716;2024-01-10T03:56:46;5.80;;;4.07;;
13959;SDS011;7052;51.050;3.716;2024-01-10T03:59:13;5.77;;;4.40;;
13959;SDS011;7052;51.050;3.716;2024-01-10T04:01:39;6.73;;;4.07;;
13959;SDS011;7052;51.050;3.716;2024-01-10T04:04:08;6.47;;;4.47;;
13959;SDS011;7052;51.050;3.716;2024-01-10T04:06:38;6.17;;;4.10;;
13959;SDS011;7052;51.050;3.716;2024-01-10T04:09:09;6.53;;;4.47;;
13959;SDS011;7052;51.050;3.716;2024-01-10T04:11:36;6.60;;;4.50;;
13959;SDS011;7052;51.050;3.716;2024-01-10T04:14:04;6.17;;;4.30;;
13959;SDS011;7052;51.050;3.716;2024-01-10T04:16:32;6.83;;;4.10;;
13959;SDS011;7052;51.050;3.716;2024-01-10T04:18:59;6.67;;;4.40;;
13959;SDS011;7052;51.050;3.716;2024-01-10T04:21:26;7.10;;;4.47;;
13959;SDS011;7052;51.050;3.716;2024-01-10T04:23:53;6.47;;;5.00;;
13959;SDS011;7052;51.050;3.716;2024-01-10T04:26:22;7.37;;;5.20;;
13959;SDS011;7052;51.050;3.716;2024-01-10T04:28:48;6.10;;;4.87;;
13959;SDS011;7052;51.050;3.716;2024-01-10T04:31:17;6.27;;;4.97;;
13959;SDS011;7052;51.050;3.716;2024-01-10T04:33:44;7.93;;;5.30;;
13959;SDS011;7052;51.050;3.716;2024-01-10T04:36:11;8.43;;;5.60;;
13959;SDS011;7052;51.050;3.716;2024-01-10T04:38:38;7.50;;;5.47;;
13959;SDS011;7052;51.050;3.716;2024-01-10T04:41:05;6.87;;;4.43;;
13959;SDS011;7052;51.050;3.716;2024-01-10T04:43:34;5.87;;;4.37;;
13959;SDS011;7052;51.050;3.716;2024-01-10T04:46:01;6.73;;;4.60;;
13959;SDS011;7052;51.050;3.716;2024-01-10T04:48:28;10.23;;;5.07;;
13959;SDS011;7052;51.050;3.716;2024-01-10T04:50:55;6.70;;;4.83;;
13959;SDS011;7052;51.050;3.716;2024-01-10T04:53:22;7.67;;;3.93;;
13959;SDS011;7052;51.050;3.716;2024-01-10T04:55:50;7.93;;;4.80;;
13959;SDS011;7052;51.050;3.716;2024-01-10T04:58:19;6.00;;;4.40;;
13959;SDS011;7052;51.050;3.716;2024-01-10T05:00:47;7.57;;;4.60;;
13959;SDS011;7052;51.050;3.716;2024-01-10T05:03:14;5.80;;;3.90;;
13959;SDS011;7052;51.050;3.716;2024-01-10T05:05:41;4.73;;;3.47;;
13959;SDS011;7052;51.050;3.716;2024-01-10T05:08:08;6.80;;;4.10;;
13959;SDS011;7052;51.050;3.716;2024-01-10T05:10:35;5.77;;;3.90;;
13959;SDS011;7052;51.050;3.716;2024-01-10T05:13:02;5.60;;;3.27;;
13959;SDS011;7052;51.050;3.716;2024-01-10T05:15:29;5.50;;;3.50;;
13959;SDS011;7052;51.050;3.716;2024-01-10T05:17:57;5.57;;;4.13;;
13959;SDS011;7052;51.050;3.716;2024-01-10T05:20:25;5.80;;;3.47;;
13959;SDS011;7052;51.050;3.716;2024-01-10T05:22:52;7.07;;;3.67;;
13959;SDS011;7052;51.050;3.716;2024-01-10T05:25:19;5.43;;;3.60;;
13959;SDS011;7052;51.050;3.716;2024-01-10T05:27:46;5.83;;;3.90;;
13959;SDS011;7052;51.050;3.716;2024-01-10T05:30:16;5.77;;;3.90;;
13959;SDS011;7052;51.050;3.716;2024-01-10T05:32:45;5.23;;;3.80;;
13959;SDS011;7052;51.050;3.716;2024-01-10T05:35:15;5.13;;;3.50;;
13959;SDS011;7052;51.050;3.716;2024-01-10T05:37:42;7.87;;;3.83;;
13959;SDS011;7052;51.050;3.716;2024-01-10T05:40:10;5.55;;;4.43;;
13959;SDS011;7052;51.050;3.716;2024-01-10T05:42:37;5.17;;;4.00;;
13959;SDS011;7052;51.050;3.716;2024-01-10T05:45:05;8.77;;;4.10;;
13959;SDS011;7052;51.050;3.716;2024-01-10T05:47:33;4.30;;;3.80;;
13959;SDS011;7052;51.050;3.716;2024-01-10T05:50:00;5.07;;;3.77;;
13959;SDS011;7052;51.050;3.716;2024-01-10T05:52:30;5.00;;;3.63;;
13959;SDS011;7052;51.050;3.716;2024-01-10T05:54:58;6.60;;;4.20;;
13959;SDS011;7052;51.050;3.716;2024-01-10T05:57:26;5.57;;;3.80;;
13959;SDS011;7052;51.050;3.716;2024-01-10T05:59:55;7.77;;;4.30;;
13959;SDS011;7052;51.050;3.716;2024-01-10T06:02:22;5.63;;;3.77;;
13959;SDS011;7052;51.050;3.716;2024-01-10T06:04:57;4.77;;;3.20;;
13959;SDS011;7052;51.050;3.716;2024-01-10T06:07:23;6.73;;;4.20;;
13959;SDS011;7052;51.050;3.716;2024-01-10T06:09:52;6.33;;;4.20;;
13959;SDS011;7052;51.050;3.716;2024-01-10T06:12:19;6.73;;;4.60;;
13959;SDS011;7052;51.050;3.716;2024-01-10T06:14:45;6.03;;;4.30;;
13959;SDS011;7052;51.050;3.716;2024-01-10T06:17:13;7.27;;;4.10;;
13959;SDS011;7052;51.050;3.716;2024-01-10T06:19:41;5.50;;;3.90;;
13959;SDS011;7052;51.050;3.716;2024-01-10T06:22:08;5.80;;;3.83;;
13959;SDS011;7052;51.050;3.716;2024-01-10T06:24:36;6.90;;;3.97;;
13959;SDS011;7052;51.050;3.716;2024-01-10T06:27:05;6.13;;;4.37;;
13959;SDS011;7052;51.050;3.716;2024-01-10T06:29:33;7.47;;;4.47;;
13959;SDS011;7052;51.050;3.716;2024-01-10T06:32:00;8.17;;;4.50;;
13959;SDS011;7052;51.050;3.716;2024-01-10T06:34:27;8.80;;;4.87;;
13959;SDS011;7052;51.050;3.716;2024-01-10T06:36:54;7.80;;;4.50;;
13959;SDS011;7052;51.050;3.716;2024-01-10T06:39:22;6.07;;;4.30;;
13959;SDS011;7052;51.050;3.716;2024-01-10T06:41:50;9.70;;;4.70;;
13959;SDS011;7052;51.050;3.716;2024-01-10T06:44:19;7.27;;;4.37;;
13959;SDS011;7052;51.050;3.716;2024-01-10T06:46:46;6.67;;;4.73;;
13959;SDS011;7052;51.050;3.716;2024-01-10T06:49:13;6.20;;;4.37;;
13959;SDS011;7052;51.050;3.716;2024-01-10T06:51:41;5.43;;;4.13;;
13959;SDS011;7052;51.050;3.716;2024-01-10T06:54:09;7.83;;;5.10;;
13959;SDS011;7052;51.050;3.716;2024-01-10T06:56:37;6.63;;;4.60;;
13959;SDS011;7052;51.050;3.716;2024-01-10T06:59:05;7.03;;;3.70;;
13959;SDS011;7052;51.050;3.716;2024-01-10T07:01:33;7.70;;;4.50;;
13959;SDS011;7052;51.050;3.716;2024-01-10T07:04:00;8.43;;;5.13;;
13959;SDS011;7052;51.050;3.716;2024-01-10T07:06:29;13.87;;;5.60;;
13959;SDS011;7052;51.050;3.716;2024-01-10T07:08:56;7.57;;;4.40;;
13959;SDS011;7052;51.050;3.716;2024-01-10T07:11:25;7.97;;;4.80;;
13959;SDS011;7052;51.050;3.716;2024-01-10T07:13:54;5.80;;;4.10;;
13959;SDS011;7052;51.050;3.716;2024-01-10T07:16:20;6.90;;;4.30;;
13959;SDS011;7052;51.050;3.716;2024-01-10T07:18:53;6.40;;;4.17;;
13959;SDS011;7052;51.050;3.716;2024-01-10T07:21:20;8.63;;;5.03;;
13959;SDS011;7052;51.050;3.716;2024-01-10T07:23:48;7.27;;;4.90;;
13959;SDS011;7052;51.050;3.716;2024-01-10T07:26:15;7.40;;;5.07;;
13959;SDS011;7052;51.050;3.716;2024-01-10T07:28:42;7.17;;;4.77;;
13959;SDS011;7052;51.050;3.716;2024-01-10T07:31:11;7.10;;;4.90;;
13959;SDS011;7052;51.050;3.716;2024-01-10T07:33:38;7.83;;;4.97;;
13959;SDS011;7052;51.050;3.716;2024-01-10T07:36:06;7.47;;;4.87;;
13959;SDS011;7052;51.050;3.716;2024-01-10T07:38:33;7.57;;;5.20;;
13959;SDS011;7052;51.050;3.716;2024-01-10T07:41:01;6.83;;;4.87;;
13959;SDS011;7052;51.050;3.716;2024-01-10T07:43:28;11.57;;;4.30;;
13959;SDS011;7052;51.050;3.716;2024-01-10T07:45:55;6.70;;;4.93;;
13959;SDS011;7052;51.050;3.716;2024-01-10T07:48:22;8.43;;;5.00;;
13959;SDS011;7052;51.050;3.716;2024-01-10T07:50:50;9.37;;;4.90;;
13959;SDS011;7052;51.050;3.716;2024-01-10T07:53:18;10.87;;;5.83;;
13959;SDS011;7052;51.050;3.716;2024-01-10T07:55:45;7.97;;;4.70;;
13959;SDS011;7052;51.050;3.716;2024-01-10T07:58:12;9.57;;;5.17;;
13959;SDS011;7052;51.050;3.716;2024-01-10T08:00:41;6.83;;;4.07;;
13959;SDS011;7052;51.050;3.716;2024-01-10T08:03:08;8.83;;;5.43;;
13959;SDS011;7052;51.050;3.716;2024-01-10T08:05:35;8.43;;;4.93;;
13959;SDS011;7052;51.050;3.716;2024-01-10T08:08:02;8.87;;;4.80;;
13959;SDS011;7052;51.050;3.716;2024-01-10T08:10:31;7.17;;;4.30;;
13959;SDS011;7052;51.050;3.716;2024-01-10T08:12:59;6.50;;;4.53;;
13959;SDS011;7052;51.050;3.716;2024-01-10T08:15:27;6.73;;;4.23;;
13959;SDS011;7052;51.050;3.716;2024-01-10T08:17:55;6.80;;;4.80;;
13959;SDS011;7052;51.050;3.716;2024-01-10T08:20:25;7.33;;;5.47;;
13959;SDS011;7052;51.050;3.716;2024-01-10T08:22:52;6.77;;;4.37;;
13959;SDS011;7052;51.050;3.716;2024-01-10T08:25:20;7.60;;;4.37;;
13959;SDS011;7052;51.050;3.716;2024-01-10T08:27:50;6.20;;;3.87;;
13959;SDS011;7052;51.050;3.716;2024-01-10T08:30:19;9.47;;;4.57;;
13959;SDS011;7052;51.050;3.716;2024-01-10T08:32:46;6.93;;;4.70;;
13959;SDS011;7052;51.050;3.716;2024-01-10T08:35:13;7.43;;;4.50;;
13959;SDS011;7052;51.050;3.716;2024-01-10T08:37:41;8.43;;;5.10;;
13959;SDS011;7052;51.050;3.716;2024-01-10T08:40:09;7.30;;;5.20;;
13959;SDS011;7052;51.050;3.716;2024-01-10T08:42:39;9.53;;;5.90;;
13959;SDS011;7052;51.050;3.716;2024-01-10T08:45:08;8.80;;;5.33;;
13959;SDS011;7052;51.050;3.716;2024-01-10T08:47:37;9.35;;;6.30;;
13959;SDS011;7052;51.050;3.716;2024-01-10T08:50:05;10.70;;;6.03;;
13959;SDS011;7052;51.050;3.716;2024-01-10T08:52:33;9.00;;;6.07;;
13959;SDS011;7052;51.050;3.716;2024-01-10T08:55:04;13.35;;;6.55;;
13959;SDS011;7052;51.050;3.716;2024-01-10T08:57:32;9.33;;;6.03;;
13959;SDS011;7052;51.050;3.716;2024-01-10T09:00:00;9.30;;;5.60;;
13959;SDS011;7052;51.050;3.716;2024-01-10T09:02:32;8.97;;;5.47;;
13959;SDS011;7052;51.050;3.716;2024-01-10T09:05:01;8.03;;;5.70;;
13959;SDS011;7052;51.050;3.716;2024-01-10T09:07:29;7.70;;;5.30;;
13959;SDS011;7052;51.050;3.716;2024-01-10T09:10:00;6.87;;;4.47;;
13959;SDS011;7052;51.050;3.716;2024-01-10T09:12:30;6.53;;;4.50;;
13959;SDS011;7052;51.050;3.716;2024-01-10T09:14:58;10.13;;;5.20;;
13959;SDS011;7052;51.050;3.716;2024-01-10T09:17:25;7.70;;;5.50;;
13959;SDS011;7052;51.050;3.716;2024-01-10T09:19:54;9.60;;;4.70;;
13959;SDS011;7052;51.050;3.716;2024-01-10T09:22:22;7.57;;;4.27;;
13959;SDS011;7052;51.050;3.716;2024-01-10T09:24:49;8.20;;;4.83;;
13959;SDS011;7052;51.050;3.716;2024-01-10T09:27:17;6.83;;;4.73;;
13959;SDS011;7052;51.050;3.716;2024-01-10T09:29:44;8.47;;;5.23;;
13959;SDS011;7052;51.050;3.716;2024-01-10T09:32:11;6.27;;;4.00;;
13959;SDS011;7052;51.050;3.716;2024-01-10T09:34:38;5.13;;;3.03;;
13959;SDS011;7052;51.050;3.716;2024-01-10T09:37:09;7.63;;;4.33;;
13959;SDS011;7052;51.050;3.716;2024-01-10T09:39:37;9.90;;;5.33;;
13959;SDS011;7052;51.050;3.716;2024-01-10T09:42:06;9.03;;;4.97;;
13959;SDS011;7052;51.050;3.716;2024-01-10T09:44:33;6.33;;;4.17;;
13959;SDS011;7052;51.050;3.716;2024-01-10T09:47:01;7.33;;;4.70;;
13959;SDS011;7052;51.050;3.716;2024-01-10T09:49:28;13.67;;;5.83;;
13959;SDS011;7052;51.050;3.716;2024-01-10T09:51:57;6.43;;;4.10;;
13959;SDS011;7052;51.050;3.716;2024-01-10T09:54:27;7.00;;;4.27;;
13959;SDS011;7052;51.050;3.716;2024-01-10T09:56:56;9.33;;;4.90;;
13959;SDS011;7052;51.050;3.716;2024-01-10T09:59:24;8.23;;;4.77;;
13959;SDS011;7052;51.050;3.716;2024-01-10T10:01:51;7.23;;;4.60;;
13959;SDS011;7052;51.050;3.716;2024-01-10T10:04:20;7.53;;;4.97;;
13959;SDS011;7052;51.050;3.716;2024-01-10T10:06:55;6.93;;;4.53;;
13959;SDS011;7052;51.050;3.716;2024-01-10T10:09:27;6.53;;;3.23;;
13959;SDS011;7052;51.050;3.716;2024-01-10T10:11:56;5.43;;;4.10;;
13959;SDS011;7052;51.050;3.716;2024-01-10T10:14:23;29.47;;;6.93;;
13959;SDS011;7052;51.050;3.716;2024-01-10T10:16:54;7.83;;;5.40;;
13959;SDS011;7052;51.050;3.716;2024-01-10T10:19:25;8.10;;;5.33;;
13959;SDS011;7052;51.050;3.716;2024-01-10T10:21:52;8.13;;;5.77;;
13959;SDS011;7052;51.050;3.716;2024-01-10T10:24:19;4.90;;;3.37;;
13959;SDS011;7052;51.050;3.716;2024-01-10T10:26:49;6.90;;;5.00;;
13959;SDS011;7052;51.050;3.716;2024-01-10T10:29:17;9.40;;;5.50;;
13959;SDS011;7052;51.050;3.716;2024-01-10T10:31:47;6.50;;;3.90;;
13959;SDS011;7052;51.050;3.716;2024-01-10T10:34:16;6.10;;;4.20;;
13959;SDS011;7052;51.050;3.716;2024-01-10T10:36:48;9.50;;;5.80;;
13959;SDS011;7052;51.050;3.716;2024-01-10T10:39:15;8.27;;;5.23;;
13959;SDS011;7052;51.050;3.716;2024-01-10T10:41:43;8.47;;;5.93;;
13959;SDS011;7052;51.050;3.716;2024-01-10T10:44:17;10.97;;;5.77;;
13959;SDS011;7052;51.050;3.716;2024-01-10T10:46:47;7.40;;;5.13;;
13959;SDS011;7052;51.050;3.716;2024-01-10T10:49:18;7.90;;;4.87;;
13959;SDS011;7052;51.050;3.716;2024-01-10T10:52:00;8.67;;;5.40;;
13959;SDS011;7052;51.050;3.716;2024-01-10T10:54:28;7.70;;;5.37;;
13959;SDS011;7052;51.050;3.716;2024-01-10T10:56:57;9.33;;;5.50;;
13959;SDS011;7052;51.050;3.716;2024-01-10T10:59:29;9.07;;;5.70;;
13959;SDS011;7052;51.050;3.716;2024-01-10T11:02:04;7.53;;;5.80;;
13959;SDS011;7052;51.050;3.716;2024-01-10T11:04:36;7.30;;;5.20;;
13959;SDS011;7052;51.050;3.716;2024-01-10T11:07:07;14.30;;;6.70;;
13959;SDS011;7052;51.050;3.716;2024-01-10T11:09:34;11.73;;;5.90;;
13959;SDS011;7052;51.050;3.716;2024-01-10T11:12:09;8.90;;;5.80;;
13959;SDS011;7052;51.050;3.716;2024-01-10T11:14:57;6.87;;;5.13;;
13959;SDS011;7052;51.050;3.716;2024-01-10T11:17:44;8.40;;;5.83;;
13959;SDS011;7052;51.050;3.716;2024-01-10T11:20:33;9.87;;;5.67;;
13959;SDS011;7052;51.050;3.716;2024-01-10T11:26:14;8.27;;;5.40;;
13959;SDS011;7052;51.050;3.716;2024-01-10T11:28:41;10.73;;;6.07;;
13959;SDS011;7052;51.050;3.716;2024-01-10T11:31:10;7.80;;;5.60;;
13959;SDS011;7052;51.050;3.716;2024-01-10T11:33:39;11.23;;;6.10;;
13959;SDS011;7052;51.050;3.716;2024-01-10T11:38:49;9.13;;;5.47;;
13959;SDS011;7052;51.050;3.716;2024-01-10T11:41:22;12.03;;;7.00;;
13959;SDS011;7052;51.050;3.716;2024-01-10T11:46:54;6.83;;;4.87;;
13959;SDS011;7052;51.050;3.716;2024-01-10T11:49:23;9.87;;;6.13;;
13959;SDS011;7052;51.050;3.716;2024-01-10T11:51:52;11.23;;;6.17;;
13959;SDS011;7052;51.050;3.716;2024-01-10T11:54:37;8.97;;;5.30;;
13959;SDS011;7052;51.050;3.716;2024-01-10T11:57:08;15.13;;;7.30;;
13959;SDS011;7052;51.050;3.716;2024-01-10T11:59:38;11.50;;;7.20;;
13959;SDS011;7052;51.050;3.716;2024-01-10T12:02:10;13.07;;;7.00;;
13959;SDS011;7052;51.050;3.716;2024-01-10T12:04:37;8.00;;;5.23;;
13959;SDS011;7052;51.050;3.716;2024-01-10T12:07:08;10.60;;;7.50;;
13959;SDS011;7052;51.050;3.716;2024-01-10T12:09:35;12.13;;;6.20;;
13959;SDS011;7052;51.050;3.716;2024-01-10T12:12:02;7.67;;;5.10;;
13959;SDS011;7052;51.050;3.716;2024-01-10T12:14:30;9.97;;;6.73;;
13959;SDS011;7052;51.050;3.716;2024-01-10T12:16:59;9.83;;;7.17;;
13959;SDS011;7052;51.050;3.716;2024-01-10T12:19:31;10.47;;;6.67;;
13959;SDS011;7052;51.050;3.716;2024-01-10T12:21:57;17.25;;;9.50;;
13959;SDS011;7052;51.050;3.716;2024-01-10T12:24:26;18.70;;;9.07;;
13959;SDS011;7052;51.050;3.716;2024-01-10T12:26:54;14.53;;;7.33;;
13959;SDS011;7052;51.050;3.716;2024-01-10T12:29:22;12.33;;;7.30;;
13959;SDS011;7052;51.050;3.716;2024-01-10T12:31:51;12.83;;;7.80;;
13959;SDS011;7052;51.050;3.716;2024-01-10T12:34:18;11.73;;;7.27;;
13959;SDS011;7052;51.050;3.716;2024-01-10T12:36:55;15.97;;;8.83;;
13959;SDS011;7052;51.050;3.716;2024-01-10T12:39:25;12.40;;;7.53;;
13959;SDS011;7052;51.050;3.716;2024-01-10T12:41:56;9.27;;;6.50;;
13959;SDS011;7052;51.050;3.716;2024-01-10T12:44:27;9.87;;;6.57;;
13959;SDS011;7052;51.050;3.716;2024-01-10T12:46:55;11.33;;;6.93;;
13959;SDS011;7052;51.050;3.716;2024-01-10T12:49:25;10.50;;;6.40;;
13959;SDS011;7052;51.050;3.716;2024-01-10T12:51:52;9.50;;;6.27;;
13959;SDS011;7052;51.050;3.716;2024-01-10T12:54:24;10.47;;;5.30;;
13959;SDS011;7052;51.050;3.716;2024-01-10T12:56:51;13.67;;;7.10;;
13959;SDS011;7052;51.050;3.716;2024-01-10T12:59:20;9.13;;;5.77;;
13959;SDS011;7052;51.050;3.716;2024-01-10T13:01:48;7.50;;;4.47;;
13959;SDS011;7052;51.050;3.716;2024-01-10T13:04:15;8.57;;;5.40;;
13959;SDS011;7052;51.050;3.716;2024-01-10T13:06:42;12.10;;;6.60;;
13959;SDS011;7052;51.050;3.716;2024-01-10T13:09:12;10.50;;;6.63;;
13959;SDS011;7052;51.050;3.716;2024-01-10T13:11:39;10.27;;;6.23;;
13959;SDS011;7052;51.050;3.716;2024-01-10T13:14:06;9.23;;;6.03;;
13959;SDS011;7052;51.050;3.716;2024-01-10T13:16:34;10.33;;;6.60;;
13959;SDS011;7052;51.050;3.716;2024-01-10T13:19:02;9.73;;;5.87;;
13959;SDS011;7052;51.050;3.716;2024-01-10T13:21:29;11.83;;;7.00;;
13959;SDS011;7052;51.050;3.716;2024-01-10T13:23:56;9.73;;;5.57;;
13959;SDS011;7052;51.050;3.716;2024-01-10T13:26:26;9.90;;;6.03;;
13959;SDS011;7052;51.050;3.716;2024-01-10T13:28:53;10.53;;;6.20;;
13959;SDS011;7052;51.050;3.716;2024-01-10T13:31:20;6.17;;;4.00;;
13959;SDS011;7052;51.050;3.716;2024-01-10T13:33:47;9.57;;;5.60;;
13959;SDS011;7052;51.050;3.716;2024-01-10T13:36:15;11.77;;;6.90;;
13959;SDS011;7052;51.050;3.716;2024-01-10T13:38:42;9.77;;;6.30;;
13959;SDS011;7052;51.050;3.716;2024-01-10T13:41:09;9.27;;;5.23;;
13959;SDS011;7052;51.050;3.716;2024-01-10T13:43:37;9.30;;;7.03;;
13959;SDS011;7052;51.050;3.716;2024-01-10T13:46:05;12.33;;;6.67;;
13959;SDS011;7052;51.050;3.716;2024-01-10T13:48:32;10.67;;;6.57;;
13959;SDS011;7052;51.050;3.716;2024-01-10T13:50:59;10.53;;;6.37;;
13959;SDS011;7052;51.050;3.716;2024-01-10T13:53:26;13.00;;;6.60;;
13959;SDS011;7052;51.050;3.716;2024-01-10T13:55:53;7.43;;;5.23;;
13959;SDS011;7052;51.050;3.716;2024-01-10T13:58:20;10.63;;;6.43;;
13959;SDS011;7052;51.050;3.716;2024-01-10T14:00:50;11.60;;;7.27;;
13959;SDS011;7052;51.050;3.716;2024-01-10T14:03:17;12.77;;;7.37;;
13959;SDS011;7052;51.050;3.716;2024-01-10T14:05:46;11.13;;;7.53;;
13959;SDS011;7052;51.050;3.716;2024-01-10T14:08:13;10.87;;;7.37;;
13959;SDS011;7052;51.050;3.716;2024-01-10T14:10:41;9.87;;;6.37;;
13959;SDS011;7052;51.050;3.716;2024-01-10T14:13:08;10.10;;;6.50;;
13959;SDS011;7052;51.050;3.716;2024-01-10T14:15:36;10.73;;;6.80;;
13959;SDS011;7052;51.050;3.716;2024-01-10T14:18:05;12.03;;;6.63;;
13959;SDS011;7052;51.050;3.716;2024-01-10T14:20:34;9.10;;;5.97;;
13959;SDS011;7052;51.050;3.716;2024-01-10T14:23:01;11.30;;;6.40;;
13959;SDS011;7052;51.050;3.716;2024-01-10T14:25:31;9.23;;;6.80;;
13959;SDS011;7052;51.050;3.716;2024-01-10T14:27:58;11.00;;;7.03;;
13959;SDS011;7052;51.050;3.716;2024-01-10T14:30:25;12.93;;;6.80;;
13959;SDS011;7052;51.050;3.716;2024-01-10T14:32:54;11.17;;;6.20;;
13959;SDS011;7052;51.050;3.716;2024-01-10T14:35:22;10.07;;;7.07;;
13959;SDS011;7052;51.050;3.716;2024-01-10T14:37:50;11.53;;;7.77;;
13959;SDS011;7052;51.050;3.716;2024-01-10T14:40:18;8.43;;;6.40;;
13959;SDS011;7052;51.050;3.716;2024-01-10T14:42:47;12.40;;;6.80;;
13959;SDS011;7052;51.050;3.716;2024-01-10T14:45:14;12.47;;;6.70;;
13959;SDS011;7052;51.050;3.716;2024-01-10T14:47:41;12.23;;;7.23;;
13959;SDS011;7052;51.050;3.716;2024-01-10T14:50:12;13.33;;;7.20;;
13959;SDS011;7052;51.050;3.716;2024-01-10T14:52:43;10.43;;;7.30;;
13959;SDS011;7052;51.050;3.716;2024-01-10T14:55:10;11.77;;;6.70;;
13959;SDS011;7052;51.050;3.716;2024-01-10T14:57:37;11.53;;;7.40;;
13959;SDS011;7052;51.050;3.716;2024-01-10T15:00:05;11.00;;;7.33;;
13959;SDS011;7052;51.050;3.716;2024-01-10T15:02:33;11.83;;;7.27;;
13959;SDS011;7052;51.050;3.716;2024-01-10T15:05:01;10.13;;;7.07;;
13959;SDS011;7052;51.050;3.716;2024-01-10T15:07:27;12.17;;;6.93;;
13959;SDS011;7052;51.050;3.716;2024-01-10T15:09:56;14.10;;;7.60;;
13959;SDS011;7052;51.050;3.716;2024-01-10T15:12:24;10.23;;;7.33;;